Time;durP1;ratioP1;P1;durP2;ratioP2;P2;SDS_P1;SDS_P2;PMS_P1;PMS_P2;Temp;Humidity;BMP_temperature;BMP_pressure;BME280_temperature;BME280_humidity;BME280_pressure;Samples;Min_cycle;Max_cycle;Signal;HPM_P1;HPM_P2
2022/12/20 00:01:16;;;;;;;7.13;1.92;;;17.70;1.00;;;;;;5111951;28;20039;-37
2022/12/20 00:03:44;;;;;;;5.57;2.08;;;17.60;1.00;;;;;;5111863;28;20093;-37
2022/12/20 00:06:12;;;;;;;6.15;2.15;;;17.60;1.00;;;;;;5112018;28;20039;-37
2022/12/20 00:08:39;;;;;;;7.82;2.00;;;17.60;1.00;;;;;;5112006;28;20418;-37
2022/12/20 00:11:07;;;;;;;4.30;2.00;;;17.60;1.00;;;;;;5111868;28;20100;-37
2022/12/20 00:13:35;;;;;;;5.03;1.80;;;17.60;1.00;;;;;;5111709;28;20047;-37
2022/12/20 00:16:10;;;;;;;4.47;1.60;;;17.60;1.00;;;;;;5111980;28;20135;-37
2022/12/20 00:18:38;;;;;;;7.07;1.52;;;17.50;1.00;;;;;;5111952;28;20069;-37
2022/12/20 00:21:07;;;;;;;3.30;1.38;;;17.50;1.00;;;;;;5111599;28;20513;-36
2022/12/20 00:23:35;;;;;;;6.43;1.50;;;17.50;1.00;;;;;;5111699;28;20122;-36
2022/12/20 00:26:23;;;;;;;3.47;1.95;;;17.40;1.00;;;;;;5111741;28;20521;-36
2022/12/20 00:28:52;;;;;;;5.45;1.98;;;17.40;1.00;;;;;;5112651;28;20044;-37
2022/12/20 00:31:20;;;;;;;7.32;2.20;;;17.40;1.00;;;;;;5115654;28;20398;-38
2022/12/20 00:33:51;;;;;;;6.30;2.05;;;17.40;1.00;;;;;;5096972;28;20460;-37
2022/12/20 00:36:19;;;;;;;6.78;2.10;;;17.30;1.00;;;;;;5097284;28;20108;-36
2022/12/20 00:38:47;;;;;;;3.95;1.83;;;17.30;1.00;;;;;;5097411;28;20055;-36
2022/12/20 00:41:17;;;;;;;5.68;1.95;;;17.30;1.00;;;;;;5097148;28;20046;-36
2022/12/20 00:43:44;;;;;;;6.78;1.63;;;17.30;1.00;;;;;;5115341;28;20122;-37
2022/12/20 00:46:13;;;;;;;3.22;1.67;;;17.30;1.00;;;;;;5097044;28;20039;-36
2022/12/20 00:48:40;;;;;;;8.00;2.20;;;17.20;1.00;;;;;;5115433;28;20097;-36
2022/12/20 00:51:15;;;;;;;7.95;2.45;;;17.20;1.00;;;;;;5115329;28;20395;-36
2022/12/20 00:53:43;;;;;;;4.90;1.88;;;17.20;1.00;;;;;;5114989;28;20050;-37
2022/12/20 00:56:10;;;;;;;5.32;1.77;;;17.20;1.00;;;;;;5115165;28;20490;-36
2022/12/20 00:58:40;;;;;;;3.55;1.65;;;17.20;1.00;;;;;;5115158;28;20039;-36
2022/12/20 01:01:18;;;;;;;4.63;1.98;;;17.10;1.00;;;;;;5115090;28;20253;-36
2022/12/20 01:03:48;;;;;;;3.97;1.42;;;17.10;1.00;;;;;;5115059;28;20054;-36
2022/12/20 01:06:15;;;;;;;5.05;2.30;;;17.10;1.00;;;;;;5115011;28;20051;-37
2022/12/20 01:08:42;;;;;;;7.88;2.35;;;17.10;1.00;;;;;;5115039;28;20051;-37
2022/12/20 01:11:19;;;;;;;5.50;1.85;;;17.10;1.00;;;;;;5114727;28;20085;-36
2022/12/20 01:13:49;;;;;;;4.63;1.63;;;17.00;1.00;;;;;;5096251;28;20092;-37
2022/12/20 01:16:22;;;;;;;6.05;2.10;;;17.00;1.00;;;;;;5096498;28;20078;-37
2022/12/20 01:18:49;;;;;;;5.10;2.05;;;17.00;1.00;;;;;;5096601;28;20494;-37
2022/12/20 01:21:17;;;;;;;5.93;1.98;;;17.00;1.00;;;;;;5096150;28;20225;-37
2022/12/20 01:23:45;;;;;;;3.13;1.30;;;17.00;1.00;;;;;;5114334;28;20046;-37
2022/12/20 01:26:15;;;;;;;4.82;1.70;;;16.90;1.00;;;;;;5114577;28;20103;-37
2022/12/20 01:28:44;;;;;;;2.95;1.42;;;16.90;1.00;;;;;;5096325;28;20047;-36
2022/12/20 01:31:13;;;;;;;2.50;1.52;;;16.90;1.00;;;;;;5114374;28;20092;-36
2022/12/20 01:33:40;;;;;;;5.10;1.80;;;16.90;1.00;;;;;;5095968;28;20127;-36
2022/12/20 01:36:11;;;;;;;5.85;1.52;;;16.90;1.00;;;;;;5096060;28;20055;-37
2022/12/20 01:38:38;;;;;;;6.43;2.13;;;16.90;1.00;;;;;;5096265;28;20040;-36
2022/12/20 01:41:06;;;;;;;8.38;1.58;;;16.80;1.00;;;;;;5095626;28;20075;-37
2022/12/20 01:44:29;;;;;;;4.20;1.52;;;16.80;1.00;;;;;;5114275;28;20040;-37
2022/12/20 01:46:57;;;;;;;3.88;1.80;;;16.80;1.00;;;;;;5001772;28;20456;-37
2022/12/20 01:49:33;;;;;;;6.43;2.45;;;16.80;1.00;;;;;;5090940;28;20047;-36
2022/12/20 01:52:19;;;;;;;5.13;1.70;;;16.80;1.00;;;;;;5114097;28;20126;-37
2022/12/20 01:55:01;;;;;;;4.32;1.67;;;16.80;1.00;;;;;;5095614;28;20134;-37
2022/12/20 01:57:36;;;;;;;4.93;2.30;;;16.70;1.00;;;;;;5114060;28;20093;-37
2022/12/20 02:00:04;;;;;;;4.63;2.22;;;16.70;1.00;;;;;;5095639;28;20040;-37
2022/12/20 02:02:40;;;;;;;6.25;2.00;;;16.70;1.00;;;;;;5113714;28;20520;-36
2022/12/20 02:05:08;;;;;;;5.80;2.05;;;16.70;1.00;;;;;;5095540;28;20052;-37
2022/12/20 02:07:37;;;;;;;3.25;1.27;;;16.70;1.00;;;;;;5095524;28;20090;-36
2022/12/20 02:10:05;;;;;;;6.47;2.30;;;16.70;1.00;;;;;;5113922;28;20051;-37
2022/12/20 02:12:41;;;;;;;4.57;2.05;;;16.70;1.00;;;;;;5113500;28;20063;-37
2022/12/20 02:15:27;;;;;;;3.65;1.65;;;16.60;1.00;;;;;;5113675;28;20039;-36
2022/12/20 02:18:12;;;;;;;3.80;1.98;;;16.60;1.00;;;;;;5113611;28;20044;-37
2022/12/20 02:21:13;;;;;;;2.85;1.75;;;16.60;1.00;;;;;;5113463;28;20052;-37
2022/12/20 02:24:07;;;;;;;5.63;1.75;;;16.60;1.00;;;;;;5095027;28;20044;-37
2022/12/20 02:26:34;;;;;;;;;;;16.60;1.00;;;;;;5113984;28;20036;-37
2022/12/20 02:29:10;;;;;;;6.03;1.83;;;16.60;1.00;;;;;;5113650;28;20354;-37
2022/12/20 02:31:52;;;;;;;2.40;1.10;;;16.50;1.00;;;;;;5113170;28;20082;-37
2022/12/20 02:34:23;;;;;;;4.80;1.80;;;16.50;1.00;;;;;;5113015;28;20031;-37
2022/12/20 02:36:50;;;;;;;4.22;1.80;;;16.50;1.00;;;;;;5113376;28;20053;-36
2022/12/20 02:39:21;;;;;;;3.90;1.80;;;16.50;1.00;;;;;;5113310;28;20040;-36
2022/12/20 02:42:05;;;;;;;3.55;1.30;;;16.50;1.00;;;;;;5094774;28;20039;-36
2022/12/20 02:47:29;;;;;;;2.67;1.48;;;16.50;1.00;;;;;;5113089;28;20042;-36
2022/12/20 02:49:56;;;;;;;2.90;1.70;;;16.40;1.00;;;;;;5094801;28;20079;-37
2022/12/20 02:52:26;;;;;;;5.60;1.63;;;16.40;1.00;;;;;;5112499;28;20073;-36
2022/12/20 02:54:54;;;;;;;4.47;1.42;;;16.40;1.00;;;;;;5094571;28;20040;-36
2022/12/20 02:57:36;;;;;;;2.45;1.35;;;16.40;1.00;;;;;;5094587;28;20044;-37
2022/12/20 03:00:13;;;;;;;4.73;1.63;;;16.40;1.00;;;;;;5094589;28;20040;-38
2022/12/20 03:05:28;;;;;;;2.78;1.55;;;16.40;1.00;;;;;;5094510;28;20087;-37
2022/12/20 03:07:56;;;;;;;3.33;2.00;;;16.40;1.00;;;;;;5094394;28;20471;-37
2022/12/20 03:10:25;;;;;;;2.80;1.10;;;16.30;1.00;;;;;;5077649;28;20043;-37
2022/12/20 03:12:52;;;;;;;4.40;1.45;;;16.30;1.00;;;;;;5112483;28;20118;-37
2022/12/20 03:15:19;;;;;;;3.90;1.42;;;16.30;1.00;;;;;;5094191;28;20047;-37
2022/12/20 03:17:49;;;;;;;3.10;1.10;;;16.30;1.00;;;;;;5094354;28;20127;-42
2022/12/20 03:20:16;;;;;;;5.00;2.65;;;16.30;1.00;;;;;;5094151;28;20563;-38
2022/12/20 03:22:43;;;;;;;3.50;1.60;;;16.30;1.00;;;;;;5112258;28;20042;-38
2022/12/20 03:25:10;;;;;;;5.95;2.05;;;16.30;1.00;;;;;;5083349;28;20059;-38
2022/12/20 03:27:36;;;;;;;2.67;1.35;;;16.30;1.00;;;;;;5085852;28;20477;-37
2022/12/20 03:30:05;;;;;;;3.30;1.15;;;16.30;1.00;;;;;;5094140;28;20494;-37
2022/12/20 03:32:34;;;;;;;5.07;1.58;;;16.30;1.00;;;;;;5100362;28;20123;-38
2022/12/20 03:35:01;;;;;;;3.10;1.60;;;16.30;1.00;;;;;;5107276;28;20089;-38
2022/12/20 03:37:34;;;;;;;2.42;1.33;;;16.20;1.00;;;;;;5094163;28;20134;-38
2022/12/20 03:40:04;;;;;;;2.95;1.40;;;16.20;1.00;;;;;;5094094;28;20445;-37
2022/12/20 03:42:32;;;;;;;3.05;1.00;;;16.20;1.00;;;;;;5093871;28;20067;-37
2022/12/20 03:44:58;;;;;;;3.45;1.50;;;16.20;1.00;;;;;;5086282;28;20134;-37
2022/12/20 03:47:28;;;;;;;3.78;1.10;;;16.20;1.00;;;;;;5092973;28;20079;-37
2022/12/20 03:49:56;;;;;;;4.85;1.33;;;16.20;1.00;;;;;;5093951;28;20524;-37
2022/12/20 03:52:23;;;;;;;5.05;1.58;;;16.20;1.00;;;;;;5093650;28;20074;-37
2022/12/20 03:54:49;;;;;;;3.25;1.48;;;16.20;1.00;;;;;;5093715;28;20089;-37
2022/12/20 03:57:23;;;;;;;3.55;1.48;;;16.10;1.00;;;;;;5112339;28;20035;-37
2022/12/20 03:59:53;;;;;;;3.55;1.20;;;16.10;1.00;;;;;;5093775;28;20040;-38
2022/12/20 04:02:20;;;;;;;2.95;1.05;;;16.10;1.00;;;;;;5091068;28;20047;-36
2022/12/20 04:04:48;;;;;;;4.38;1.50;;;16.10;1.00;;;;;;5091116;28;20051;-36
2022/12/20 04:07:15;;;;;;;2.10;0.98;;;16.10;1.00;;;;;;5097803;28;20043;-36
2022/12/20 04:09:45;;;;;;;1.70;1.08;;;16.10;1.00;;;;;;5096852;28;20450;-36
2022/12/20 04:12:14;;;;;;;4.00;1.40;;;16.10;1.00;;;;;;5089191;28;20043;-38
2022/12/20 04:14:41;;;;;;;2.90;1.73;;;16.10;1.00;;;;;;5097494;28;20051;-37
2022/12/20 04:17:10;;;;;;;3.55;1.08;;;16.10;1.00;;;;;;5097698;28;20510;-36
2022/12/20 04:19:38;;;;;;;2.00;0.90;;;16.10;1.00;;;;;;5097750;28;20134;-37
2022/12/20 04:22:06;;;;;;;3.08;1.55;;;16.10;1.00;;;;;;5115749;28;20122;-44
2022/12/20 04:24:45;;;;;;;2.10;1.20;;;16.10;1.00;;;;;;5097498;28;20051;-45
2022/12/20 04:27:23;;;;;;;2.70;1.33;;;16.00;1.00;;;;;;5097678;28;20044;-45
2022/12/20 04:29:52;;;;;;;3.67;1.05;;;16.00;1.00;;;;;;5097587;28;20039;-45
2022/12/20 04:32:20;;;;;;;3.88;1.63;;;16.00;1.00;;;;;;5115596;28;20058;-44
2022/12/20 04:34:47;;;;;;;2.85;0.95;;;16.00;1.00;;;;;;5097328;28;20410;-44
2022/12/20 04:37:15;;;;;;;2.67;1.30;;;16.00;1.00;;;;;;5115731;28;20160;-45
2022/12/20 04:39:49;;;;;;;3.13;1.52;;;16.00;1.00;;;;;;5097456;28;20036;-45
2022/12/20 04:42:19;;;;;;;2.90;1.67;;;16.00;1.00;;;;;;5097150;28;20040;-45
2022/12/20 04:44:47;;;;;;;4.72;0.95;;;16.00;1.00;;;;;;5097135;28;20052;-45
2022/12/20 04:47:19;;;;;;;3.92;1.02;;;16.00;1.00;;;;;;5097197;28;20057;-43
2022/12/20 04:49:46;;;;;;;1.88;0.95;;;16.00;1.00;;;;;;5097137;28;20090;-45
2022/12/20 04:54:58;;;;;;;4.45;1.33;;;16.00;1.00;;;;;;5076619;28;20056;-44
2022/12/20 04:57:30;;;;;;;6.65;1.30;;;15.90;1.00;;;;;;5076746;28;20040;-45
2022/12/20 04:59:58;;;;;;;5.63;1.92;;;15.90;1.00;;;;;;5076640;28;20052;-44
2022/12/20 05:02:24;;;;;;;4.00;1.33;;;15.90;1.00;;;;;;5094464;28;20411;-44
2022/12/20 05:04:56;;;;;;;3.97;1.27;;;15.90;1.00;;;;;;5076779;28;20044;-43
2022/12/20 05:07:23;;;;;;;2.30;1.20;;;15.90;1.00;;;;;;5076552;28;20044;-43
2022/12/20 05:09:52;;;;;;;3.28;1.40;;;15.90;1.00;;;;;;5076488;28;20414;-44
2022/12/20 05:12:19;;;;;;;3.80;1.00;;;15.90;1.00;;;;;;5062302;28;20056;-42
2022/12/20 05:14:46;;;;;;;2.30;1.05;;;15.90;1.00;;;;;;5055296;28;20041;-43
2022/12/20 05:17:17;;;;;;;4.75;1.35;;;15.90;1.00;;;;;;5040268;28;20050;-43
2022/12/20 05:19:44;;;;;;;2.75;1.40;;;15.90;1.00;;;;;;5074269;28;20583;-44
2022/12/20 05:27:52;;;;;;;2.70;1.20;;;15.90;1.00;;;;;;5056003;28;20072;-43
2022/12/20 05:30:22;;;;;;;4.47;1.17;;;15.90;1.00;;;;;;5055855;28;20181;-44
2022/12/20 05:32:50;;;;;;;4.10;1.40;;;15.80;1.00;;;;;;5055645;28;20056;-44
2022/12/20 05:35:17;;;;;;;2.67;1.35;;;15.80;1.00;;;;;;5055885;28;20128;-43
2022/12/20 05:37:46;;;;;;;2.97;1.45;;;15.80;1.00;;;;;;5055775;28;20051;-43
2022/12/20 05:40:17;;;;;;;2.17;1.02;;;15.80;1.00;;;;;;5055776;28;20052;-43
2022/12/20 05:42:44;;;;;;;3.65;1.05;;;15.80;1.00;;;;;;5055452;28;20063;-43
2022/12/20 05:45:11;;;;;;;3.25;1.55;;;15.80;1.00;;;;;;5055725;28;20049;-43
2022/12/20 05:47:47;;;;;;;4.22;1.63;;;15.80;1.00;;;;;;5055708;28;20048;-43
2022/12/20 05:50:16;;;;;;;2.85;1.50;;;15.80;1.00;;;;;;5055603;28;20559;-44
2022/12/20 05:53:03;;;;;;;4.25;1.02;;;15.80;1.00;;;;;;5073586;28;20170;-43
2022/12/20 05:55:42;;;;;;;3.92;1.15;;;15.80;1.00;;;;;;5055536;28;20044;-43
2022/12/20 05:58:12;;;;;;;2.67;1.52;;;15.80;1.00;;;;;;5055499;28;20044;-44
2022/12/20 06:00:48;;;;;;;5.22;1.50;;;15.80;1.00;;;;;;5055326;28;20052;-43
2022/12/20 06:03:15;;;;;;;3.63;1.27;;;15.70;1.00;;;;;;5038600;28;20090;-44
2022/12/20 06:05:44;;;;;;;4.93;1.45;;;15.70;1.00;;;;;;5055452;28;20045;-44
2022/12/20 06:08:15;;;;;;;4.50;1.48;;;15.70;1.00;;;;;;5055380;28;20143;-44
2022/12/20 06:10:42;;;;;;;3.65;1.90;;;15.80;1.00;;;;;;5055168;28;20515;-43
2022/12/20 06:13:09;;;;;;;3.15;1.33;;;15.70;1.00;;;;;;5054767;28;20052;-44
2022/12/20 06:15:37;;;;;;;4.38;1.50;;;15.70;1.00;;;;;;5055079;28;20059;-43
2022/12/20 06:18:05;;;;;;;4.93;1.70;;;15.70;1.00;;;;;;5055151;28;20481;-43
2022/12/20 06:20:34;;;;;;;4.57;1.40;;;15.70;1.00;;;;;;5054789;28;20041;-44
2022/12/20 06:23:03;;;;;;;3.35;1.27;;;15.70;1.00;;;;;;5054692;28;20044;-44
2022/12/20 06:25:38;;;;;;;5.88;1.55;;;15.70;1.00;;;;;;5054921;28;20068;-43
2022/12/20 06:28:06;;;;;;;4.97;1.60;;;15.70;1.00;;;;;;5054010;28;20055;-44
2022/12/20 06:30:33;;;;;;;4.78;1.40;;;15.70;1.00;;;;;;5054722;28;20048;-43
2022/12/20 06:33:06;;;;;;;4.55;1.52;;;15.70;1.00;;;;;;5054559;28;20431;-44
2022/12/20 06:35:33;;;;;;;4.20;1.27;;;15.70;1.00;;;;;;5054728;28;20500;-44
2022/12/20 06:38:00;;;;;;;3.08;1.40;;;15.70;1.00;;;;;;5054671;28;20041;-43
2022/12/20 06:40:30;;;;;;;4.25;1.83;;;15.70;1.00;;;;;;5054489;28;20136;-43
2022/12/20 06:43:00;;;;;;;6.65;1.63;;;15.60;1.00;;;;;;5054242;28;20558;-43
2022/12/20 06:45:27;;;;;;;3.13;1.42;;;15.70;1.00;;;;;;5054591;28;20075;-44
2022/12/20 06:47:57;;;;;;;4.15;1.65;;;15.60;1.00;;;;;;5054648;28;20041;-44
2022/12/20 06:50:25;;;;;;;4.22;1.10;;;15.60;1.00;;;;;;5054408;28;20763;-43
2022/12/20 06:52:52;;;;;;;5.00;1.67;;;15.60;1.00;;;;;;5054044;28;20067;-44
2022/12/20 06:55:22;;;;;;;4.82;1.83;;;15.60;1.00;;;;;;5054142;28;20040;-44
2022/12/20 06:57:50;;;;;;;5.30;1.63;;;15.60;1.00;;;;;;5054401;28;20090;-43
2022/12/20 07:00:19;;;;;;;6.30;2.28;;;15.60;1.00;;;;;;5054215;28;20051;-43
2022/12/20 07:02:46;;;;;;;5.25;1.38;;;15.60;1.00;;;;;;5053911;28;20599;-43
2022/12/20 07:05:13;;;;;;;5.65;1.75;;;15.60;1.00;;;;;;5072057;28;20128;-43
2022/12/20 07:07:40;;;;;;;3.58;1.35;;;15.60;1.00;;;;;;5072398;28;20461;-43
2022/12/20 07:10:11;;;;;;;4.88;1.35;;;15.60;1.00;;;;;;5072016;28;20056;-43
2022/12/20 07:12:38;;;;;;;2.40;1.15;;;15.60;1.00;;;;;;5071790;28;20064;-43
2022/12/20 07:15:13;;;;;;;2.63;1.52;;;15.60;1.00;;;;;;5074822;28;20487;-44
2022/12/20 07:17:40;;;;;;;3.10;1.23;;;15.60;1.00;;;;;;5086642;28;20066;-44
2022/12/20 07:20:07;;;;;;;2.33;1.30;;;15.60;1.00;;;;;;5089902;28;20047;-43
2022/12/20 07:22:40;;;;;;;4.80;1.38;;;15.60;1.00;;;;;;5094933;28;20043;-44
2022/12/20 07:25:07;;;;;;;2.55;1.55;;;15.60;1.00;;;;;;5093085;28;20043;-43
2022/12/20 07:27:34;;;;;;;7.70;1.85;;;15.60;1.00;;;;;;5093240;28;20119;-43
2022/12/20 07:30:00;;;;;;;2.92;1.48;;;15.50;1.00;;;;;;5094822;28;20419;-43
2022/12/20 07:32:28;;;;;;;3.30;1.10;;;15.60;1.00;;;;;;5093441;28;20042;-44
2022/12/20 07:34:55;;;;;;;2.38;1.20;;;15.50;1.00;;;;;;5106573;28;20115;-43
2022/12/20 07:37:22;;;;;;;4.65;1.42;;;15.50;1.00;;;;;;5112071;28;20067;-43
2022/12/20 07:39:49;;;;;;;9.48;1.40;;;15.50;1.00;;;;;;5112308;28;20055;-44
2022/12/20 07:42:17;;;;;;;3.85;1.45;;;15.50;1.00;;;;;;5111972;28;20420;-43
2022/12/20 07:44:48;;;;;;;3.42;1.20;;;15.50;1.00;;;;;;5093855;28;20036;-43
2022/12/20 07:47:15;;;;;;;12.65;1.98;;;15.50;1.00;;;;;;5100506;28;20044;-44
2022/12/20 07:49:42;;;;;;;5.63;1.65;;;15.50;1.00;;;;;;5097121;28;20455;-44
2022/12/20 07:52:11;;;;;;;31.83;2.95;;;15.50;1.00;;;;;;5099423;28;20050;-44
2022/12/20 07:54:44;;;;;;;6.60;2.28;;;15.50;1.00;;;;;;5092518;28;20115;-43
2022/12/20 07:57:18;;;;;;;3.60;1.75;;;15.50;1.00;;;;;;5107692;28;20043;-43
2022/12/20 07:59:50;;;;;;;2.70;1.70;;;15.40;1.00;;;;;;5097060;28;20032;-43
2022/12/20 08:02:22;;;;;;;4.53;1.67;;;15.50;1.00;;;;;;5103632;28;20118;-44
2022/12/20 08:04:49;;;;;;;5.88;1.90;;;15.40;1.00;;;;;;5110289;28;20097;-44
2022/12/20 08:07:16;;;;;;;6.30;1.63;;;15.50;1.00;;;;;;5093642;28;20395;-44
2022/12/20 08:09:44;;;;;;;7.18;1.42;;;15.40;1.00;;;;;;5111624;28;20074;-45
2022/12/20 08:12:13;;;;;;;6.85;1.88;;;15.50;1.00;;;;;;5111729;28;20042;-44
2022/12/20 08:14:41;;;;;;;6.72;2.40;;;15.50;1.00;;;;;;5111839;28;20066;-45
2022/12/20 08:17:08;;;;;;;2.42;1.50;;;15.40;1.00;;;;;;5110651;28;20047;-44
2022/12/20 08:19:35;;;;;;;3.67;1.80;;;15.40;1.00;;;;;;5110177;28;20433;-44
2022/12/20 08:22:02;;;;;;;5.57;1.83;;;15.40;1.00;;;;;;5111493;28;20539;-44
2022/12/20 08:24:30;;;;;;;3.03;1.80;;;15.40;1.00;;;;;;5109421;28;20445;-45
2022/12/20 08:26:57;;;;;;;2.65;1.45;;;15.40;1.00;;;;;;5097603;28;20068;-44
2022/12/20 08:29:23;;;;;;;4.20;1.40;;;15.40;1.00;;;;;;5090446;28;20051;-44
2022/12/20 08:31:51;;;;;;;4.15;1.40;;;15.40;1.00;;;;;;5094934;28;20050;-44
2022/12/20 08:34:18;;;;;;;4.45;1.52;;;15.40;1.00;;;;;;5103748;28;20447;-44
2022/12/20 08:36:45;;;;;;;9.35;2.00;;;15.40;1.00;;;;;;5090742;28;20085;-44
2022/12/20 08:39:11;;;;;;;8.32;2.05;;;15.40;1.00;;;;;;5090146;28;20064;-44
2022/12/20 08:41:38;;;;;;;5.63;1.80;;;15.40;1.00;;;;;;5099009;28;20433;-43
2022/12/20 08:44:05;;;;;;;5.20;1.63;;;15.40;1.00;;;;;;5108157;28;20051;-44
2022/12/20 08:46:32;;;;;;;6.22;1.35;;;15.40;1.00;;;;;;5110989;28;20482;-43
2022/12/20 08:48:59;;;;;;;3.10;1.58;;;15.40;1.00;;;;;;5074054;28;20067;-44
2022/12/20 08:51:27;;;;;;;5.22;1.60;;;15.30;1.00;;;;;;5073762;28;20654;-44
2022/12/20 08:53:55;;;;;;;3.45;1.48;;;15.30;1.00;;;;;;5074072;28;20033;-44
2022/12/20 08:56:22;;;;;;;3.72;1.58;;;15.40;1.00;;;;;;5074393;28;20120;-43
2022/12/20 08:58:49;;;;;;;4.82;1.40;;;15.30;1.00;;;;;;5076155;28;20093;-43
2022/12/20 09:01:18;;;;;;;5.13;1.60;;;15.40;1.00;;;;;;5102279;28;20050;-43
2022/12/20 09:03:46;;;;;;;5.20;1.98;;;15.30;1.00;;;;;;5103575;28;20040;-44
2022/12/20 09:06:16;;;;;;;6.90;1.40;;;15.40;1.00;;;;;;5102614;28;20123;-43
2022/12/20 09:08:43;;;;;;;2.60;1.08;;;15.40;1.00;;;;;;5104112;28;20043;-44
2022/12/20 09:11:12;;;;;;;2.45;1.27;;;15.30;1.00;;;;;;5107932;28;20453;-44
2022/12/20 09:13:41;;;;;;;6.53;1.60;;;15.40;1.00;;;;;;5102383;28;20522;-43
2022/12/20 09:16:12;;;;;;;7.70;1.90;;;15.30;1.00;;;;;;5102780;28;20042;-44
2022/12/20 09:18:43;;;;;;;2.85;1.20;;;15.30;1.00;;;;;;5114478;28;20039;-44
2022/12/20 09:21:28;;;;;;;3.72;1.65;;;15.30;1.00;;;;;;5105664;28;20490;-44
2022/12/20 09:24:13;;;;;;;4.00;1.48;;;15.40;1.00;;;;;;5100017;28;20442;-44
2022/12/20 09:26:40;;;;;;;2.88;0.90;;;15.30;1.00;;;;;;5106206;28;20047;-43
2022/12/20 09:29:07;;;;;;;3.25;1.75;;;15.30;1.00;;;;;;5114425;28;20436;-43
2022/12/20 09:31:34;;;;;;;4.63;1.98;;;15.30;1.00;;;;;;5104306;28;20121;-43
2022/12/20 09:34:00;;;;;;;2.17;1.48;;;15.30;1.00;;;;;;5098520;28;20047;-43
2022/12/20 09:36:28;;;;;;;3.33;1.23;;;15.30;1.00;;;;;;5103499;28;20398;-44
2022/12/20 09:38:56;;;;;;;4.40;1.30;;;15.40;1.00;;;;;;5102276;28;20487;-43
2022/12/20 09:41:28;;;;;;;5.18;2.13;;;15.30;1.00;;;;;;5112654;28;20050;-44
2022/12/20 09:43:57;;;;;;;5.45;1.33;;;15.30;1.00;;;;;;5113862;28;20061;-43
2022/12/20 09:46:25;;;;;;;4.00;1.52;;;15.30;1.00;;;;;;5114413;28;20035;-44
2022/12/20 09:48:53;;;;;;;3.03;1.45;;;15.30;1.00;;;;;;5114145;28;20044;-44
2022/12/20 09:51:26;;;;;;;5.22;1.50;;;15.30;1.00;;;;;;5114217;28;20104;-44
2022/12/20 09:54:16;;;;;;;3.33;1.38;;;15.30;1.00;;;;;;5114078;28;20399;-44
2022/12/20 09:56:58;;;;;;;6.30;2.05;;;15.30;1.00;;;;;;5107452;28;20036;-45
2022/12/20 09:59:27;;;;;;;3.85;1.77;;;15.30;1.00;;;;;;5105021;28;20063;-44
2022/12/20 10:01:54;;;;;;;5.22;1.60;;;15.30;1.00;;;;;;5113555;28;20118;-44
2022/12/20 10:04:23;;;;;;;9.93;1.48;;;15.30;1.00;;;;;;5113613;28;20044;-44
2022/12/20 10:06:54;;;;;;;3.22;1.45;;;15.30;1.00;;;;;;5113992;28;20660;-45
2022/12/20 10:09:56;;;;;;;8.32;1.10;;;15.30;1.00;;;;;;5113778;28;20151;-45
2022/12/20 10:12:35;;;;;;;2.50;1.33;;;15.30;1.00;;;;;;5113498;28;20082;-44
2022/12/20 10:15:17;;;;;;;4.95;1.60;;;15.30;1.00;;;;;;5113484;28;20040;-44
2022/12/20 10:17:46;;;;;;;5.10;1.40;;;15.30;1.00;;;;;;5113798;28;20035;-46
2022/12/20 10:20:19;;;;;;;7.22;1.83;;;15.30;1.00;;;;;;5113469;28;20071;-44
2022/12/20 10:23:24;;;;;;;4.40;1.05;;;15.30;1.00;;;;;;5108630;22;20044;-36
2022/12/20 10:25:59;;;;;;;4.03;1.45;;;15.30;1.00;;;;;;5088192;28;20398;-34
2022/12/20 10:28:33;;;;;;;4.38;1.75;;;15.30;1.00;;;;;;5093028;28;20067;-34
2022/12/20 10:31:06;;;;;;;3.05;1.77;;;15.30;1.00;;;;;;5093033;28;20040;-35
2022/12/20 10:33:33;;;;;;;7.75;1.70;;;15.20;1.00;;;;;;5092656;28;20066;-36
2022/12/20 10:36:21;;;;;;;5.65;1.90;;;15.20;1.00;;;;;;5093140;28;20051;-35
2022/12/20 10:38:52;;;;;;;3.65;1.35;;;15.30;1.00;;;;;;5092908;28;20127;-35
2022/12/20 10:41:23;;;;;;;8.32;1.70;;;15.20;1.00;;;;;;5092995;28;20611;-36
2022/12/20 10:44:00;;;;;;;3.42;1.70;;;15.20;1.00;;;;;;5092484;28;20028;-35
2022/12/20 10:46:43;;;;;;;2.65;1.60;;;15.20;1.00;;;;;;5092942;28;20052;-36
2022/12/20 10:49:39;;;;;;;3.80;1.40;;;15.20;1.00;;;;;;5092636;28;20380;-35
2022/12/20 10:52:06;;;;;;;7.97;1.55;;;15.20;1.00;;;;;;5092578;28;20047;-34
2022/12/20 10:54:41;;;;;;;6.05;1.70;;;15.20;1.00;;;;;;5092258;28;20479;-34
2022/12/20 10:57:14;;;;;;;6.07;1.38;;;15.20;1.00;;;;;;5092642;28;20043;-34
2022/12/20 10:59:44;;;;;;;2.63;1.60;;;15.20;1.00;;;;;;5092546;28;20033;-35
2022/12/20 11:02:23;;;;;;;5.30;1.20;;;15.20;1.00;;;;;;5092353;28;20556;-35
2022/12/20 11:05:19;;;;;;;4.68;1.63;;;15.20;1.00;;;;;;5092183;28;20040;-35
2022/12/20 11:07:52;;;;;;;5.57;1.67;;;15.20;1.00;;;;;;5092463;28;20455;-35
2022/12/20 11:10:39;;;;;;;5.38;1.30;;;15.20;1.00;;;;;;5092325;28;20407;-35
2022/12/20 11:13:17;;;;;;;5.07;1.52;;;15.20;1.00;;;;;;5091291;28;20514;-35
2022/12/20 11:15:49;;;;;;;2.40;1.15;;;15.20;1.00;;;;;;5092258;28;20040;-35
2022/12/20 11:18:47;;;;;;;5.32;1.40;;;15.20;1.00;;;;;;5092253;28;20068;-35
2022/12/20 11:21:28;;;;;;;3.47;2.17;;;15.20;1.00;;;;;;5048766;28;20044;-35
2022/12/20 11:24:26;;;;;;;10.05;1.73;;;15.20;1.00;;;;;;5091777;28;20123;-35
2022/12/20 11:27:14;;;;;;;3.80;2.15;;;15.20;1.00;;;;;;5092180;28;20514;-36
2022/12/20 11:30:09;;;;;;;4.65;1.50;;;15.20;1.00;;;;;;5092154;28;20044;-36
2022/12/20 11:32:52;;;;;;;4.35;1.92;;;15.20;1.00;;;;;;5091900;28;20418;-36
2022/12/20 11:35:37;;;;;;;7.38;1.98;;;15.20;1.00;;;;;;5092022;28;20040;-36
2022/12/20 11:38:13;;;;;;;5.47;1.33;;;15.20;1.00;;;;;;5092053;28;20032;-36
2022/12/20 11:40:44;;;;;;;4.88;1.80;;;15.20;1.00;;;;;;5092053;28;20067;-36
2022/12/20 11:43:36;;;;;;;2.55;1.17;;;15.20;1.00;;;;;;5091571;28;20132;-36
2022/12/20 11:46:33;;;;;;;3.22;1.60;;;15.20;1.00;;;;;;5091886;28;20047;-35
2022/12/20 11:49:18;;;;;;;7.00;1.77;;;15.20;1.00;;;;;;5087802;28;20056;-36
2022/12/20 11:51:46;;;;;;;6.82;2.25;;;15.20;1.00;;;;;;5066772;28;20036;-35
2022/12/20 11:54:19;;;;;;;6.95;1.98;;;15.20;1.00;;;;;;5082436;28;20048;-36
2022/12/20 11:56:49;;;;;;;6.17;1.83;;;15.20;1.00;;;;;;5084701;28;20046;-35
2022/12/20 11:59:25;;;;;;;5.38;1.73;;;15.20;1.00;;;;;;5073731;28;20162;-35
2022/12/20 12:01:59;;;;;;;5.25;1.48;;;15.20;1.00;;;;;;5092025;28;20454;-35
2022/12/20 12:04:31;;;;;;;6.15;1.33;;;15.20;1.00;;;;;;5091630;28;20079;-35
2022/12/20 12:07:31;;;;;;;8.10;1.10;;;15.20;1.00;;;;;;5091751;28;20040;-35
2022/12/20 12:10:14;;;;;;;5.57;1.92;;;15.20;1.00;;;;;;5091670;28;20495;-36
2022/12/20 12:12:45;;;;;;;9.70;1.60;;;15.10;1.00;;;;;;5091411;28;20114;-36
2022/12/20 12:15:31;;;;;;;6.43;1.77;;;15.20;1.00;;;;;;5091613;28;20043;-35
2022/12/20 12:18:06;;;;;;;3.80;1.30;;;15.10;1.00;;;;;;5070622;28;20574;-36
2022/12/20 12:21:07;;;;;;;6.25;2.30;;;15.10;1.00;;;;;;5072330;28;20465;-35
2022/12/20 12:23:50;;;;;;;5.88;1.65;;;15.10;1.00;;;;;;5069318;28;20491;-36
2022/12/20 12:26:24;;;;;;;6.05;1.75;;;15.10;1.00;;;;;;5072895;28;20047;-35
2022/12/20 12:29:04;;;;;;;11.13;1.90;;;15.10;1.00;;;;;;5073774;28;20040;-35
2022/12/20 12:31:56;;;;;;;8.48;1.90;;;15.10;1.00;;;;;;5073666;28;20052;-35
2022/12/20 12:34:51;;;;;;;4.80;2.93;;;15.10;1.00;;;;;;5073306;28;20044;-35
2022/12/20 12:37:37;;;;;;;2.78;1.00;;;15.10;1.00;;;;;;5074264;28;20434;-35
2022/12/20 12:40:41;;;;;;;5.13;1.75;;;15.10;1.00;;;;;;5074993;28;20044;-35
2022/12/20 12:43:43;;;;;;;6.85;2.38;;;15.10;1.00;;;;;;5074412;28;20488;-35
2022/12/20 12:46:16;;;;;;;11.38;2.00;;;15.10;1.00;;;;;;5074790;28;20064;-36
2022/12/20 12:48:56;;;;;;;5.35;1.92;;;15.10;1.00;;;;;;5074790;28;20150;-36
2022/12/20 12:51:35;;;;;;;5.30;1.50;;;15.10;1.00;;;;;;5074687;28;20037;-34
2022/12/20 12:54:17;;;;;;;4.32;1.40;;;15.10;1.00;;;;;;5074290;28;20219;-35
2022/12/20 12:56:49;;;;;;;6.45;2.08;;;15.10;1.00;;;;;;5074705;28;20404;-35
2022/12/20 12:59:22;;;;;;;7.35;1.55;;;15.10;1.00;;;;;;5074617;28;20048;-35
2022/12/20 13:01:52;;;;;;;6.50;1.70;;;15.10;1.00;;;;;;5074573;28;20058;-36
2022/12/20 13:04:24;;;;;;;6.45;2.10;;;15.10;1.00;;;;;;5056574;28;20033;-35
2022/12/20 13:06:58;;;;;;;8.73;2.13;;;15.10;1.00;;;;;;5074503;28;20056;-35
2022/12/20 13:09:25;;;;;;;5.15;1.83;;;15.10;1.00;;;;;;5074416;28;20071;-35
2022/12/20 13:11:55;;;;;;;7.57;1.85;;;15.10;1.00;;;;;;5074189;28;20052;-36
2022/12/20 13:14:29;;;;;;;8.43;1.95;;;15.10;1.00;;;;;;5074064;28;20040;-36
2022/12/20 13:17:02;;;;;;;6.47;1.40;;;15.10;1.00;;;;;;5074320;28;20047;-36
2022/12/20 13:19:52;;;;;;;2.75;1.30;;;15.10;1.00;;;;;;5074220;28;20047;-36
2022/12/20 13:22:23;;;;;;;7.15;1.88;;;15.10;1.00;;;;;;5073898;28;20062;-36
2022/12/20 13:24:59;;;;;;;5.30;1.20;;;15.10;1.00;;;;;;5074053;28;20490;-35
2022/12/20 13:27:28;;;;;;;4.90;1.58;;;15.10;1.00;;;;;;5074234;28;20071;-35
2022/12/20 13:30:01;;;;;;;2.88;2.05;;;15.10;1.00;;;;;;5074053;28;20492;-35
2022/12/20 13:32:46;;;;;;;6.03;2.55;;;15.10;1.00;;;;;;5073874;28;20044;-35
2022/12/20 13:35:22;;;;;;;7.53;1.83;;;15.00;1.00;;;;;;5073607;28;20040;-35
2022/12/20 13:38:04;;;;;;;4.07;1.63;;;15.00;1.00;;;;;;5073880;28;20127;-35
2022/12/20 13:40:45;;;;;;;4.78;1.63;;;15.00;1.00;;;;;;5073880;28;20125;-37